Aberdeen, SD

7:49 PM CDT on October 25, 2014 (GMT -0500)
Simmons | Change Station
CLOSE
Current Station
Personal Weather Station
Location: Aberdeen, SD
Elevation: 1312 ft
Nearby Weather Stations

Elev 1312 ft 45.45 °N, 98.49 °W | Updated 12 minutes ago

Clear
Clear
53.1 °F
Feels Like 53.1 °F
N
0.0
Wind Variable Wind from SE

Today
High -- | Low -- °F
--% Chance of Precip.
Yesterday
High -- | Low -- °F
Precip. -- in
8:03 AM 6:31 PM
Waxing Crescent, 5% visible
Pressure 30.08 in
Visibility 8.0 miles
Clouds Clear
Dew Point 36 °F
Humidity 51%
Rainfall 0.00 in
Snow Depth Not available.
UV 0 out of 12
Pollen 1.10 out of 12
Air Quality Not available.
Flu Activity Sporadic
METAR KABR 252353Z AUTO 10005KT 8SM CLR 10/00 A3006 RMK AO2 SLP186 T01000000 10194 20100 58013

More Conditions Fewer Conditions

Pressure 30.08 in
Visibility 8.0 miles
Clouds Clear
Dew Point 36 °F
Humidity 51%
Rainfall 0.00 in
Snow Depth Not available.
UV 0 out of 12
Pollen 1.10 out of 12
Air Quality Not available.
Flu Activity Sporadic
METAR KABR 252353Z AUTO 10005KT 8SM CLR 10/00 A3006 RMK AO2 SLP186 T01000000 10194 20100 58013

More Conditions Fewer Conditions

10-Day Weather Forecast

Almanac

Astronomy

Oct. 25, 2014 Rise Set
Actual Time 8:03 AM CDT 6:31 PM CDT
Civil Twilight 7:33 AM CDT 7:01 PM CDT
Nautical Twilight 6:58 AM CDT 7:36 PM CDT
Astronomical Twilight 6:24 AM CDT 8:10 PM CDT
Moon 9:47 AM CDT (10/25) 7:51 PM CDT (10/25)
Length of Visible Light 11h 28m
Length of Day
10h 27m
Tomorrow will be 2m 57s shorter.
Waxing Crescent, 5% of the Moon is Illuminated
Today
Waxing Crescent
Oct 30
First Quarter
Nov 6
Full
Nov 14
Last Quarter
Nov 22
New

Today's Extremes

State Highs State Lows

Community

WunderPhotos

Upload Photos

1,765,052 photos uploaded!

Nearby

Snow Depth

Station Depth Elevation
North Rapid Creek 0 in 6130 ft
Blind Park 0 in 6890 ft

Earthquake Activity

City Distance Mag. Time & Date
No recent earthquake activity has been reported nearby.
Minimum magnitude displayed is 2.5.

Coastal Water Temperatures

Place Temperature
No Stations Reporting

Nearby Weather Stations